< < Back
Terminal Aerodrome Forecast


Current Version              Previous Versions:   1  2  3  4  5  6  7  8  9  

Terminal Aerodrome Forecast

896
FTUS44 KHUN 281720
TAFHSV
TAF
KHSV 281720Z 2818/2918 03010KT P6SM FEW030 BKN150
     FM290000 34004KT P6SM SKC
     FM290900 34004KT P6SM SCT030
     FM291300 01006KT P6SM FEW150=

Latest METAR

404
SAUS80 KWBC 291200 RRC
MTRHSV
METAR KHSV 291153Z 00000KT 10SM FEW250 23/18 A3002 RMK AO2 SLP157
T02280183 10228 20206 53014


USA.gov is the U.S. government's official web portal to all federal, state and local government web resources and services.